sensor_id;sensor_type;location;lat;lon;timestamp;P1;durP1;ratioP1;P2;durP2;ratioP2
36827;SDS011;22766;48.042;11.192;2023-03-01T00:00:00;20.40;;;8.90;;
36827;SDS011;22766;48.042;11.192;2023-03-01T00:02:36;14.95;;;7.55;;
36827;SDS011;22766;48.042;11.192;2023-03-01T00:05:03;17.67;;;8.07;;
36827;SDS011;22766;48.042;11.192;2023-03-01T00:07:30;14.75;;;7.57;;
36827;SDS011;22766;48.042;11.192;2023-03-01T00:09:57;17.15;;;7.45;;
36827;SDS011;22766;48.042;11.192;2023-03-01T00:12:24;16.65;;;7.78;;
36827;SDS011;22766;48.042;11.192;2023-03-01T00:14:51;16.73;;;7.45;;
36827;SDS011;22766;48.042;11.192;2023-03-01T00:17:18;16.65;;;7.47;;
36827;SDS011;22766;48.042;11.192;2023-03-01T00:19:44;16.45;;;7.40;;
36827;SDS011;22766;48.042;11.192;2023-03-01T00:22:11;17.40;;;7.65;;
36827;SDS011;22766;48.042;11.192;2023-03-01T00:24:38;16.00;;;7.85;;
36827;SDS011;22766;48.042;11.192;2023-03-01T00:27:04;16.58;;;7.78;;
36827;SDS011;22766;48.042;11.192;2023-03-01T00:29:31;15.38;;;6.90;;
36827;SDS011;22766;48.042;11.192;2023-03-01T00:31:59;16.83;;;7.97;;
36827;SDS011;22766;48.042;11.192;2023-03-01T00:34:25;18.05;;;7.40;;
36827;SDS011;22766;48.042;11.192;2023-03-01T00:36:53;12.60;;;6.90;;
36827;SDS011;22766;48.042;11.192;2023-03-01T00:39:20;16.58;;;7.63;;
36827;SDS011;22766;48.042;11.192;2023-03-01T00:41:47;13.65;;;6.70;;
36827;SDS011;22766;48.042;11.192;2023-03-01T00:44:13;13.32;;;6.38;;
36827;SDS011;22766;48.042;11.192;2023-03-01T00:46:40;17.92;;;8.20;;
36827;SDS011;22766;48.042;11.192;2023-03-01T00:49:07;18.92;;;7.47;;
36827;SDS011;22766;48.042;11.192;2023-03-01T00:51:34;16.13;;;7.57;;
36827;SDS011;22766;48.042;11.192;2023-03-01T00:54:01;15.13;;;6.68;;
36827;SDS011;22766;48.042;11.192;2023-03-01T00:56:29;16.77;;;7.38;;
36827;SDS011;22766;48.042;11.192;2023-03-01T00:58:57;19.95;;;8.18;;
36827;SDS011;22766;48.042;11.192;2023-03-01T01:01:25;13.90;;;7.65;;
36827;SDS011;22766;48.042;11.192;2023-03-01T01:03:58;15.40;;;7.63;;
36827;SDS011;22766;48.042;11.192;2023-03-01T01:06:31;18.10;;;7.50;;
36827;SDS011;22766;48.042;11.192;2023-03-01T01:09:00;16.30;;;7.75;;
36827;SDS011;22766;48.042;11.192;2023-03-01T01:11:28;17.17;;;7.10;;
36827;SDS011;22766;48.042;11.192;2023-03-01T01:13:56;15.70;;;6.40;;
36827;SDS011;22766;48.042;11.192;2023-03-01T01:16:24;14.48;;;7.88;;
36827;SDS011;22766;48.042;11.192;2023-03-01T01:18:52;13.18;;;6.53;;
36827;SDS011;22766;48.042;11.192;2023-03-01T01:21:20;19.58;;;7.35;;
36827;SDS011;22766;48.042;11.192;2023-03-01T01:23:49;13.32;;;6.47;;
36827;SDS011;22766;48.042;11.192;2023-03-01T01:26:18;16.42;;;8.13;;
36827;SDS011;22766;48.042;11.192;2023-03-01T01:28:48;13.38;;;6.75;;
36827;SDS011;22766;48.042;11.192;2023-03-01T01:31:16;14.88;;;7.82;;
36827;SDS011;22766;48.042;11.192;2023-03-01T01:33:43;12.27;;;6.97;;
36827;SDS011;22766;48.042;11.192;2023-03-01T01:36:11;10.88;;;6.53;;
36827;SDS011;22766;48.042;11.192;2023-03-01T01:38:39;12.25;;;6.97;;
36827;SDS011;22766;48.042;11.192;2023-03-01T01:41:09;16.63;;;8.35;;
36827;SDS011;22766;48.042;11.192;2023-03-01T01:43:43;13.43;;;7.10;;
36827;SDS011;22766;48.042;11.192;2023-03-01T01:48:52;13.38;;;6.60;;
36827;SDS011;22766;48.042;11.192;2023-03-01T01:51:24;15.70;;;7.50;;
36827;SDS011;22766;48.042;11.192;2023-03-01T01:53:58;15.43;;;7.43;;
36827;SDS011;22766;48.042;11.192;2023-03-01T01:56:27;12.45;;;7.70;;
36827;SDS011;22766;48.042;11.192;2023-03-01T01:58:55;14.50;;;7.63;;
36827;SDS011;22766;48.042;11.192;2023-03-01T02:01:23;16.73;;;7.80;;
36827;SDS011;22766;48.042;11.192;2023-03-01T02:03:50;12.82;;;6.65;;
36827;SDS011;22766;48.042;11.192;2023-03-01T02:08:48;15.15;;;7.40;;
36827;SDS011;22766;48.042;11.192;2023-03-01T02:11:17;15.38;;;6.88;;
36827;SDS011;22766;48.042;11.192;2023-03-01T02:13:47;17.13;;;7.65;;
36827;SDS011;22766;48.042;11.192;2023-03-01T02:16:14;15.38;;;7.55;;
36827;SDS011;22766;48.042;11.192;2023-03-01T02:18:42;13.55;;;7.95;;
36827;SDS011;22766;48.042;11.192;2023-03-01T02:23:53;14.27;;;6.63;;
36827;SDS011;22766;48.042;11.192;2023-03-01T02:29:08;10.73;;;6.00;;
36827;SDS011;22766;48.042;11.192;2023-03-01T02:31:35;13.98;;;7.28;;
36827;SDS011;22766;48.042;11.192;2023-03-01T02:34:17;11.18;;;6.78;;
36827;SDS011;22766;48.042;11.192;2023-03-01T02:36:48;14.15;;;7.25;;
36827;SDS011;22766;48.042;11.192;2023-03-01T02:39:20;10.77;;;6.43;;
36827;SDS011;22766;48.042;11.192;2023-03-01T02:41:52;13.48;;;6.78;;
36827;SDS011;22766;48.042;11.192;2023-03-01T02:44:22;15.32;;;7.38;;
36827;SDS011;22766;48.042;11.192;2023-03-01T02:46:50;16.90;;;8.15;;
36827;SDS011;22766;48.042;11.192;2023-03-01T02:49:21;16.60;;;7.57;;
36827;SDS011;22766;48.042;11.192;2023-03-01T02:54:54;12.80;;;6.72;;
36827;SDS011;22766;48.042;11.192;2023-03-01T02:57:24;12.65;;;6.32;;
36827;SDS011;22766;48.042;11.192;2023-03-01T02:59:54;13.35;;;6.72;;
36827;SDS011;22766;48.042;11.192;2023-03-01T03:02:24;14.48;;;6.88;;
36827;SDS011;22766;48.042;11.192;2023-03-01T03:05:14;11.70;;;6.22;;
36827;SDS011;22766;48.042;11.192;2023-03-01T03:07:45;13.18;;;6.68;;
36827;SDS011;22766;48.042;11.192;2023-03-01T03:10:23;14.27;;;6.82;;
36827;SDS011;22766;48.042;11.192;2023-03-01T03:13:06;14.23;;;8.05;;
36827;SDS011;22766;48.042;11.192;2023-03-01T03:15:36;14.80;;;6.60;;
36827;SDS011;22766;48.042;11.192;2023-03-01T03:18:07;15.85;;;7.80;;
36827;SDS011;22766;48.042;11.192;2023-03-01T03:20:36;16.02;;;7.53;;
36827;SDS011;22766;48.042;11.192;2023-03-01T03:23:05;12.65;;;7.35;;
36827;SDS011;22766;48.042;11.192;2023-03-01T03:25:32;11.07;;;6.97;;
36827;SDS011;22766;48.042;11.192;2023-03-01T03:28:04;15.40;;;7.80;;
36827;SDS011;22766;48.042;11.192;2023-03-01T03:30:36;15.85;;;7.63;;
36827;SDS011;22766;48.042;11.192;2023-03-01T03:33:05;12.68;;;6.85;;
36827;SDS011;22766;48.042;11.192;2023-03-01T03:35:34;16.00;;;7.85;;
36827;SDS011;22766;48.042;11.192;2023-03-01T03:38:06;14.95;;;7.20;;
36827;SDS011;22766;48.042;11.192;2023-03-01T03:40:47;12.60;;;6.90;;
36827;SDS011;22766;48.042;11.192;2023-03-01T03:43:17;15.68;;;7.97;;
36827;SDS011;22766;48.042;11.192;2023-03-01T03:45:46;13.87;;;7.27;;
36827;SDS011;22766;48.042;11.192;2023-03-01T03:48:14;17.48;;;8.20;;
36827;SDS011;22766;48.042;11.192;2023-03-01T03:50:41;18.05;;;7.38;;
36827;SDS011;22766;48.042;11.192;2023-03-01T03:55:39;13.55;;;6.93;;
36827;SDS011;22766;48.042;11.192;2023-03-01T03:58:07;16.95;;;7.40;;
36827;SDS011;22766;48.042;11.192;2023-03-01T04:00:37;13.15;;;6.72;;
36827;SDS011;22766;48.042;11.192;2023-03-01T04:03:06;15.75;;;7.53;;
36827;SDS011;22766;48.042;11.192;2023-03-01T04:05:33;19.15;;;8.38;;
36827;SDS011;22766;48.042;11.192;2023-03-01T04:08:01;10.93;;;6.50;;
36827;SDS011;22766;48.042;11.192;2023-03-01T04:10:32;14.60;;;7.55;;
36827;SDS011;22766;48.042;11.192;2023-03-01T04:13:01;19.35;;;7.57;;
36827;SDS011;22766;48.042;11.192;2023-03-01T04:15:29;16.85;;;7.30;;
36827;SDS011;22766;48.042;11.192;2023-03-01T04:17:56;13.35;;;6.82;;
36827;SDS011;22766;48.042;11.192;2023-03-01T04:20:29;13.93;;;7.65;;
36827;SDS011;22766;48.042;11.192;2023-03-01T04:23:04;13.45;;;6.95;;
36827;SDS011;22766;48.042;11.192;2023-03-01T04:25:40;15.23;;;6.95;;
36827;SDS011;22766;48.042;11.192;2023-03-01T04:28:22;14.05;;;7.40;;
36827;SDS011;22766;48.042;11.192;2023-03-01T04:30:51;16.67;;;7.25;;
36827;SDS011;22766;48.042;11.192;2023-03-01T04:33:19;14.23;;;8.13;;
36827;SDS011;22766;48.042;11.192;2023-03-01T04:35:46;15.70;;;7.57;;
36827;SDS011;22766;48.042;11.192;2023-03-01T04:38:18;13.98;;;6.20;;
36827;SDS011;22766;48.042;11.192;2023-03-01T04:40:45;14.55;;;7.30;;
36827;SDS011;22766;48.042;11.192;2023-03-01T04:43:12;13.18;;;7.00;;
36827;SDS011;22766;48.042;11.192;2023-03-01T04:45:43;16.63;;;8.07;;
36827;SDS011;22766;48.042;11.192;2023-03-01T04:48:09;21.40;;;7.70;;
36827;SDS011;22766;48.042;11.192;2023-03-01T04:50:36;16.00;;;7.63;;
36827;SDS011;22766;48.042;11.192;2023-03-01T04:53:03;15.82;;;7.30;;
36827;SDS011;22766;48.042;11.192;2023-03-01T04:55:29;15.50;;;7.50;;
36827;SDS011;22766;48.042;11.192;2023-03-01T04:57:57;16.90;;;7.85;;
36827;SDS011;22766;48.042;11.192;2023-03-01T05:00:24;12.63;;;6.63;;
36827;SDS011;22766;48.042;11.192;2023-03-01T05:02:55;13.90;;;7.70;;
36827;SDS011;22766;48.042;11.192;2023-03-01T05:05:32;12.98;;;6.75;;
36827;SDS011;22766;48.042;11.192;2023-03-01T05:08:04;16.55;;;7.43;;
36827;SDS011;22766;48.042;11.192;2023-03-01T05:10:34;17.10;;;7.47;;
36827;SDS011;22766;48.042;11.192;2023-03-01T05:13:02;14.00;;;7.35;;
36827;SDS011;22766;48.042;11.192;2023-03-01T05:15:30;18.33;;;8.23;;
36827;SDS011;22766;48.042;11.192;2023-03-01T05:17:58;16.45;;;8.15;;
36827;SDS011;22766;48.042;11.192;2023-03-01T05:20:26;13.50;;;7.38;;
36827;SDS011;22766;48.042;11.192;2023-03-01T05:22:56;16.98;;;7.90;;
36827;SDS011;22766;48.042;11.192;2023-03-01T05:25:25;17.52;;;7.50;;
36827;SDS011;22766;48.042;11.192;2023-03-01T05:27:53;15.07;;;7.53;;
36827;SDS011;22766;48.042;11.192;2023-03-01T05:30:20;15.88;;;8.88;;
36827;SDS011;22766;48.042;11.192;2023-03-01T05:32:48;16.02;;;7.78;;
36827;SDS011;22766;48.042;11.192;2023-03-01T05:35:22;14.85;;;7.20;;
36827;SDS011;22766;48.042;11.192;2023-03-01T05:37:49;13.90;;;7.80;;
36827;SDS011;22766;48.042;11.192;2023-03-01T05:40:17;18.35;;;8.57;;
36827;SDS011;22766;48.042;11.192;2023-03-01T05:42:46;16.05;;;7.90;;
36827;SDS011;22766;48.042;11.192;2023-03-01T05:45:19;15.35;;;7.47;;
36827;SDS011;22766;48.042;11.192;2023-03-01T05:47:47;13.27;;;6.72;;
36827;SDS011;22766;48.042;11.192;2023-03-01T05:50:19;15.82;;;7.78;;
36827;SDS011;22766;48.042;11.192;2023-03-01T05:52:51;13.75;;;7.45;;
36827;SDS011;22766;48.042;11.192;2023-03-01T05:55:22;15.23;;;7.57;;
36827;SDS011;22766;48.042;11.192;2023-03-01T05:57:49;16.63;;;7.97;;
36827;SDS011;22766;48.042;11.192;2023-03-01T06:00:18;13.15;;;6.28;;
36827;SDS011;22766;48.042;11.192;2023-03-01T06:02:48;15.40;;;8.05;;
36827;SDS011;22766;48.042;11.192;2023-03-01T06:05:16;14.95;;;7.10;;
36827;SDS011;22766;48.042;11.192;2023-03-01T06:07:43;18.02;;;8.55;;
36827;SDS011;22766;48.042;11.192;2023-03-01T06:10:11;16.05;;;8.07;;
36827;SDS011;22766;48.042;11.192;2023-03-01T06:12:39;18.30;;;8.07;;
36827;SDS011;22766;48.042;11.192;2023-03-01T06:15:07;16.20;;;8.07;;
36827;SDS011;22766;48.042;11.192;2023-03-01T06:17:36;19.25;;;7.93;;
36827;SDS011;22766;48.042;11.192;2023-03-01T06:20:05;18.13;;;8.40;;
36827;SDS011;22766;48.042;11.192;2023-03-01T06:22:36;15.15;;;8.32;;
36827;SDS011;22766;48.042;11.192;2023-03-01T06:25:04;17.95;;;8.73;;
36827;SDS011;22766;48.042;11.192;2023-03-01T06:27:31;23.05;;;8.95;;
36827;SDS011;22766;48.042;11.192;2023-03-01T06:29:58;14.98;;;8.15;;
36827;SDS011;22766;48.042;11.192;2023-03-01T06:32:25;14.82;;;7.45;;
36827;SDS011;22766;48.042;11.192;2023-03-01T06:34:52;13.98;;;7.38;;
36827;SDS011;22766;48.042;11.192;2023-03-01T06:37:18;13.90;;;7.10;;
36827;SDS011;22766;48.042;11.192;2023-03-01T06:39:45;17.67;;;7.70;;
36827;SDS011;22766;48.042;11.192;2023-03-01T06:42:12;16.98;;;8.27;;
36827;SDS011;22766;48.042;11.192;2023-03-01T06:44:38;14.85;;;7.82;;
36827;SDS011;22766;48.042;11.192;2023-03-01T06:47:05;18.80;;;8.00;;
36827;SDS011;22766;48.042;11.192;2023-03-01T06:49:32;18.08;;;8.50;;
36827;SDS011;22766;48.042;11.192;2023-03-01T06:51:58;16.05;;;8.48;;
36827;SDS011;22766;48.042;11.192;2023-03-01T06:54:25;19.55;;;8.50;;
36827;SDS011;22766;48.042;11.192;2023-03-01T06:56:52;14.98;;;7.82;;
36827;SDS011;22766;48.042;11.192;2023-03-01T06:59:19;15.20;;;7.60;;
36827;SDS011;22766;48.042;11.192;2023-03-01T07:01:46;15.75;;;7.55;;
36827;SDS011;22766;48.042;11.192;2023-03-01T07:04:13;16.67;;;8.13;;
36827;SDS011;22766;48.042;11.192;2023-03-01T07:06:40;17.52;;;7.68;;
36827;SDS011;22766;48.042;11.192;2023-03-01T07:09:06;17.23;;;8.50;;
36827;SDS011;22766;48.042;11.192;2023-03-01T07:11:33;15.30;;;7.78;;
36827;SDS011;22766;48.042;11.192;2023-03-01T07:14:00;17.15;;;8.32;;
36827;SDS011;22766;48.042;11.192;2023-03-01T07:16:27;17.63;;;8.77;;
36827;SDS011;22766;48.042;11.192;2023-03-01T07:18:53;17.80;;;8.45;;
36827;SDS011;22766;48.042;11.192;2023-03-01T07:21:20;14.70;;;7.75;;
36827;SDS011;22766;48.042;11.192;2023-03-01T07:23:47;17.25;;;8.50;;
36827;SDS011;22766;48.042;11.192;2023-03-01T07:26:15;19.10;;;8.32;;
36827;SDS011;22766;48.042;11.192;2023-03-01T07:28:42;18.08;;;8.60;;
36827;SDS011;22766;48.042;11.192;2023-03-01T07:31:08;14.90;;;9.32;;
36827;SDS011;22766;48.042;11.192;2023-03-01T07:33:35;17.83;;;8.23;;
36827;SDS011;22766;48.042;11.192;2023-03-01T07:36:02;18.50;;;8.55;;
36827;SDS011;22766;48.042;11.192;2023-03-01T07:38:30;18.98;;;8.75;;
36827;SDS011;22766;48.042;11.192;2023-03-01T07:40:57;22.35;;;8.93;;
36827;SDS011;22766;48.042;11.192;2023-03-01T07:43:30;17.55;;;9.68;;
36827;SDS011;22766;48.042;11.192;2023-03-01T07:45:58;19.88;;;8.38;;
36827;SDS011;22766;48.042;11.192;2023-03-01T07:48:27;19.00;;;8.85;;
36827;SDS011;22766;48.042;11.192;2023-03-01T07:50:54;17.73;;;8.90;;
36827;SDS011;22766;48.042;11.192;2023-03-01T07:53:23;18.83;;;8.95;;
36827;SDS011;22766;48.042;11.192;2023-03-01T07:55:59;24.33;;;8.65;;
36827;SDS011;22766;48.042;11.192;2023-03-01T07:58:40;17.25;;;8.55;;
36827;SDS011;22766;48.042;11.192;2023-03-01T08:01:12;14.93;;;8.02;;
36827;SDS011;22766;48.042;11.192;2023-03-01T08:03:41;16.75;;;7.90;;
36827;SDS011;22766;48.042;11.192;2023-03-01T08:06:09;21.15;;;8.07;;
36827;SDS011;22766;48.042;11.192;2023-03-01T08:08:37;15.68;;;7.72;;
36827;SDS011;22766;48.042;11.192;2023-03-01T08:11:05;20.48;;;9.30;;
36827;SDS011;22766;48.042;11.192;2023-03-01T08:13:32;18.58;;;8.43;;
36827;SDS011;22766;48.042;11.192;2023-03-01T08:18:30;15.77;;;8.35;;
36827;SDS011;22766;48.042;11.192;2023-03-01T08:21:07;18.45;;;8.93;;
36827;SDS011;22766;48.042;11.192;2023-03-01T08:23:37;17.95;;;8.18;;
36827;SDS011;22766;48.042;11.192;2023-03-01T08:26:11;19.27;;;9.43;;
36827;SDS011;22766;48.042;11.192;2023-03-01T08:28:39;18.60;;;8.93;;
36827;SDS011;22766;48.042;11.192;2023-03-01T08:31:20;14.82;;;8.90;;
36827;SDS011;22766;48.042;11.192;2023-03-01T08:33:47;17.02;;;8.10;;
36827;SDS011;22766;48.042;11.192;2023-03-01T08:36:17;17.52;;;7.63;;
36827;SDS011;22766;48.042;11.192;2023-03-01T08:38:44;17.45;;;7.53;;
36827;SDS011;22766;48.042;11.192;2023-03-01T08:41:12;24.40;;;8.98;;
36827;SDS011;22766;48.042;11.192;2023-03-01T08:43:39;19.52;;;9.25;;
36827;SDS011;22766;48.042;11.192;2023-03-01T08:46:05;20.50;;;8.90;;
36827;SDS011;22766;48.042;11.192;2023-03-01T08:48:32;17.58;;;8.05;;
36827;SDS011;22766;48.042;11.192;2023-03-01T08:51:15;16.55;;;8.82;;
36827;SDS011;22766;48.042;11.192;2023-03-01T08:53:47;19.20;;;8.60;;
36827;SDS011;22766;48.042;11.192;2023-03-01T08:56:14;18.55;;;8.65;;
36827;SDS011;22766;48.042;11.192;2023-03-01T08:58:45;17.42;;;7.70;;
36827;SDS011;22766;48.042;11.192;2023-03-01T09:01:14;15.55;;;8.70;;
36827;SDS011;22766;48.042;11.192;2023-03-01T09:03:43;21.73;;;8.80;;
36827;SDS011;22766;48.042;11.192;2023-03-01T09:06:11;19.00;;;8.80;;
36827;SDS011;22766;48.042;11.192;2023-03-01T09:08:39;14.82;;;8.27;;
36827;SDS011;22766;48.042;11.192;2023-03-01T09:11:08;17.65;;;8.02;;
36827;SDS011;22766;48.042;11.192;2023-03-01T09:13:36;17.88;;;9.50;;
36827;SDS011;22766;48.042;11.192;2023-03-01T09:16:04;18.00;;;8.38;;
36827;SDS011;22766;48.042;11.192;2023-03-01T09:18:33;15.43;;;8.02;;
36827;SDS011;22766;48.042;11.192;2023-03-01T09:21:04;18.52;;;8.45;;
36827;SDS011;22766;48.042;11.192;2023-03-01T09:23:36;16.35;;;8.23;;
36827;SDS011;22766;48.042;11.192;2023-03-01T09:26:05;16.50;;;7.53;;
36827;SDS011;22766;48.042;11.192;2023-03-01T09:28:33;18.70;;;8.77;;
36827;SDS011;22766;48.042;11.192;2023-03-01T09:31:00;16.60;;;8.02;;
36827;SDS011;22766;48.042;11.192;2023-03-01T09:33:28;16.00;;;7.80;;
36827;SDS011;22766;48.042;11.192;2023-03-01T09:35:57;15.40;;;8.13;;
36827;SDS011;22766;48.042;11.192;2023-03-01T09:38:25;14.77;;;8.05;;
36827;SDS011;22766;48.042;11.192;2023-03-01T09:40:52;16.58;;;8.75;;
36827;SDS011;22766;48.042;11.192;2023-03-01T09:46:13;19.70;;;8.18;;
36827;SDS011;22766;48.042;11.192;2023-03-01T09:51:17;18.63;;;8.37;;
36827;SDS011;22766;48.042;11.192;2023-03-01T09:53:48;15.85;;;8.40;;
36827;SDS011;22766;48.042;11.192;2023-03-01T09:56:22;18.38;;;8.77;;
36827;SDS011;22766;48.042;11.192;2023-03-01T10:09:52;18.67;;;8.43;;
36827;SDS011;22766;48.042;11.192;2023-03-01T10:12:20;23.27;;;10.18;;
36827;SDS011;22766;48.042;11.192;2023-03-01T10:20:28;16.40;;;7.57;;
36827;SDS011;22766;48.042;11.192;2023-03-01T10:23:00;16.13;;;7.78;;
36827;SDS011;22766;48.042;11.192;2023-03-01T10:28:26;18.02;;;8.60;;
36827;SDS011;22766;48.042;11.192;2023-03-01T10:31:03;16.73;;;8.02;;
36827;SDS011;22766;48.042;11.192;2023-03-01T10:33:31;21.70;;;9.80;;
36827;SDS011;22766;48.042;11.192;2023-03-01T10:36:01;16.27;;;7.83;;
36827;SDS011;22766;48.042;11.192;2023-03-01T10:38:29;19.63;;;8.07;;
36827;SDS011;22766;48.042;11.192;2023-03-01T10:40:59;19.55;;;8.20;;
36827;SDS011;22766;48.042;11.192;2023-03-01T10:43:44;21.85;;;9.88;;
36827;SDS011;22766;48.042;11.192;2023-03-01T10:51:50;18.40;;;8.10;;
36827;SDS011;22766;48.042;11.192;2023-03-01T10:54:19;19.05;;;8.48;;
36827;SDS011;22766;48.042;11.192;2023-03-01T10:56:57;24.23;;;10.02;;
36827;SDS011;22766;48.042;11.192;2023-03-01T11:04:56;18.45;;;9.18;;
36827;SDS011;22766;48.042;11.192;2023-03-01T11:07:26;17.67;;;8.52;;
36827;SDS011;22766;48.042;11.192;2023-03-01T11:09:53;17.05;;;8.50;;
36827;SDS011;22766;48.042;11.192;2023-03-01T11:12:19;21.20;;;8.70;;
36827;SDS011;22766;48.042;11.192;2023-03-01T11:14:48;17.05;;;7.75;;
36827;SDS011;22766;48.042;11.192;2023-03-01T11:17:30;23.85;;;8.15;;
36827;SDS011;22766;48.042;11.192;2023-03-01T11:22:45;16.25;;;8.18;;
36827;SDS011;22766;48.042;11.192;2023-03-01T11:25:13;17.13;;;8.52;;
36827;SDS011;22766;48.042;11.192;2023-03-01T11:27:41;18.60;;;9.18;;
36827;SDS011;22766;48.042;11.192;2023-03-01T11:30:21;14.77;;;7.72;;
36827;SDS011;22766;48.042;11.192;2023-03-01T11:35:34;17.17;;;8.65;;
36827;SDS011;22766;48.042;11.192;2023-03-01T11:58:17;19.88;;;8.95;;
36827;SDS011;22766;48.042;11.192;2023-03-01T12:01:18;17.27;;;7.65;;
36827;SDS011;22766;48.042;11.192;2023-03-01T12:04:11;18.40;;;7.78;;
36827;SDS011;22766;48.042;11.192;2023-03-01T12:06:52;15.85;;;8.05;;
36827;SDS011;22766;48.042;11.192;2023-03-01T12:18:13;20.02;;;8.00;;
36827;SDS011;22766;48.042;11.192;2023-03-01T12:26:18;18.85;;;8.18;;
36827;SDS011;22766;48.042;11.192;2023-03-01T12:45:54;22.75;;;9.30;;
36827;SDS011;22766;48.042;11.192;2023-03-01T12:51:07;17.17;;;8.45;;
36827;SDS011;22766;48.042;11.192;2023-03-01T12:53:46;23.25;;;8.77;;
36827;SDS011;22766;48.042;11.192;2023-03-01T12:56:16;16.90;;;8.10;;
36827;SDS011;22766;48.042;11.192;2023-03-01T12:59:07;18.90;;;9.80;;
36827;SDS011;22766;48.042;11.192;2023-03-01T13:20:19;14.68;;;7.95;;
36827;SDS011;22766;48.042;11.192;2023-03-01T13:23:00;14.82;;;7.95;;
36827;SDS011;22766;48.042;11.192;2023-03-01T13:25:29;16.73;;;8.40;;
36827;SDS011;22766;48.042;11.192;2023-03-01T13:34:00;13.48;;;7.50;;
36827;SDS011;22766;48.042;11.192;2023-03-01T13:39:04;17.75;;;7.93;;
36827;SDS011;22766;48.042;11.192;2023-03-01T13:41:53;15.80;;;8.20;;
36827;SDS011;22766;48.042;11.192;2023-03-01T13:49:29;16.15;;;9.02;;
36827;SDS011;22766;48.042;11.192;2023-03-01T13:55:51;13.13;;;8.25;;
36827;SDS011;22766;48.042;11.192;2023-03-01T13:57:58;14.00;;;8.02;;
36827;SDS011;22766;48.042;11.192;2023-03-01T14:00:28;16.48;;;8.35;;
36827;SDS011;22766;48.042;11.192;2023-03-01T14:05:34;16.52;;;7.90;;
36827;SDS011;22766;48.042;11.192;2023-03-01T14:08:03;17.17;;;7.85;;
36827;SDS011;22766;48.042;11.192;2023-03-01T14:10:41;14.70;;;8.07;;
36827;SDS011;22766;48.042;11.192;2023-03-01T14:21:59;15.05;;;7.57;;
36827;SDS011;22766;48.042;11.192;2023-03-01T14:24:31;14.73;;;8.18;;
36827;SDS011;22766;48.042;11.192;2023-03-01T14:27:01;15.73;;;9.13;;
36827;SDS011;22766;48.042;11.192;2023-03-01T14:29:35;16.05;;;7.38;;
36827;SDS011;22766;48.042;11.192;2023-03-01T14:34:48;16.40;;;8.80;;
36827;SDS011;22766;48.042;11.192;2023-03-01T14:39:48;17.02;;;8.60;;
36827;SDS011;22766;48.042;11.192;2023-03-01T14:42:15;15.05;;;8.63;;
36827;SDS011;22766;48.042;11.192;2023-03-01T14:44:43;14.73;;;8.93;;
36827;SDS011;22766;48.042;11.192;2023-03-01T14:47:14;15.13;;;8.57;;
36827;SDS011;22766;48.042;11.192;2023-03-01T14:49:50;15.35;;;8.00;;
36827;SDS011;22766;48.042;11.192;2023-03-01T14:52:25;16.77;;;8.57;;
36827;SDS011;22766;48.042;11.192;2023-03-01T14:55:00;18.00;;;9.15;;
36827;SDS011;22766;48.042;11.192;2023-03-01T14:57:30;15.38;;;7.70;;
36827;SDS011;22766;48.042;11.192;2023-03-01T15:00:00;16.23;;;8.38;;
36827;SDS011;22766;48.042;11.192;2023-03-01T15:02:32;14.10;;;8.25;;
36827;SDS011;22766;48.042;11.192;2023-03-01T15:05:00;12.95;;;7.55;;
36827;SDS011;22766;48.042;11.192;2023-03-01T15:07:30;16.15;;;8.60;;
36827;SDS011;22766;48.042;11.192;2023-03-01T15:09:59;16.50;;;9.20;;
36827;SDS011;22766;48.042;11.192;2023-03-01T15:14:54;17.20;;;9.00;;
36827;SDS011;22766;48.042;11.192;2023-03-01T15:17:31;14.10;;;8.63;;
36827;SDS011;22766;48.042;11.192;2023-03-01T15:20:01;14.75;;;8.25;;
36827;SDS011;22766;48.042;11.192;2023-03-01T15:22:30;16.65;;;8.52;;
36827;SDS011;22766;48.042;11.192;2023-03-01T15:24:57;14.85;;;8.15;;
36827;SDS011;22766;48.042;11.192;2023-03-01T15:27:24;15.55;;;7.88;;
36827;SDS011;22766;48.042;11.192;2023-03-01T15:29:54;20.10;;;9.30;;
36827;SDS011;22766;48.042;11.192;2023-03-01T15:32:34;15.75;;;8.30;;
36827;SDS011;22766;48.042;11.192;2023-03-01T15:40:51;16.33;;;8.10;;
36827;SDS011;22766;48.042;11.192;2023-03-01T15:46:28;17.60;;;9.45;;
36827;SDS011;22766;48.042;11.192;2023-03-01T15:48:59;20.50;;;8.95;;
36827;SDS011;22766;48.042;11.192;2023-03-01T15:51:36;18.05;;;9.70;;
36827;SDS011;22766;48.042;11.192;2023-03-01T15:54:12;17.55;;;9.15;;
36827;SDS011;22766;48.042;11.192;2023-03-01T15:56:47;17.17;;;9.30;;
36827;SDS011;22766;48.042;11.192;2023-03-01T15:59:14;19.05;;;8.73;;
36827;SDS011;22766;48.042;11.192;2023-03-01T16:01:41;21.05;;;9.32;;
36827;SDS011;22766;48.042;11.192;2023-03-01T16:04:11;17.80;;;9.55;;
36827;SDS011;22766;48.042;11.192;2023-03-01T16:06:47;20.13;;;10.00;;
36827;SDS011;22766;48.042;11.192;2023-03-01T16:09:23;18.30;;;9.23;;
36827;SDS011;22766;48.042;11.192;2023-03-01T16:11:52;17.70;;;9.50;;
36827;SDS011;22766;48.042;11.192;2023-03-01T16:14:19;19.67;;;9.43;;
36827;SDS011;22766;48.042;11.192;2023-03-01T16:16:46;17.10;;;8.93;;
36827;SDS011;22766;48.042;11.192;2023-03-01T16:19:16;17.95;;;8.23;;
36827;SDS011;22766;48.042;11.192;2023-03-01T16:21:43;16.50;;;8.68;;
36827;SDS011;22766;48.042;11.192;2023-03-01T16:24:13;16.98;;;8.43;;
36827;SDS011;22766;48.042;11.192;2023-03-01T16:26:39;22.92;;;9.50;;
36827;SDS011;22766;48.042;11.192;2023-03-01T16:29:06;23.77;;;9.95;;
36827;SDS011;22766;48.042;11.192;2023-03-01T16:31:33;17.83;;;9.45;;
36827;SDS011;22766;48.042;11.192;2023-03-01T16:34:00;19.27;;;9.60;;
36827;SDS011;22766;48.042;11.192;2023-03-01T16:36:27;20.27;;;9.75;;
36827;SDS011;22766;48.042;11.192;2023-03-01T16:38:59;20.42;;;10.27;;
36827;SDS011;22766;48.042;11.192;2023-03-01T16:41:26;20.35;;;9.57;;
36827;SDS011;22766;48.042;11.192;2023-03-01T16:43:54;18.02;;;9.65;;
36827;SDS011;22766;48.042;11.192;2023-03-01T16:46:24;19.90;;;9.40;;
36827;SDS011;22766;48.042;11.192;2023-03-01T16:48:54;22.90;;;10.50;;
36827;SDS011;22766;48.042;11.192;2023-03-01T16:51:22;20.73;;;8.68;;
36827;SDS011;22766;48.042;11.192;2023-03-01T16:53:49;19.95;;;9.73;;
36827;SDS011;22766;48.042;11.192;2023-03-01T16:56:18;27.45;;;12.32;;
36827;SDS011;22766;48.042;11.192;2023-03-01T16:58:45;26.10;;;11.48;;
36827;SDS011;22766;48.042;11.192;2023-03-01T17:01:16;24.08;;;10.52;;
36827;SDS011;22766;48.042;11.192;2023-03-01T17:03:45;26.52;;;10.27;;
36827;SDS011;22766;48.042;11.192;2023-03-01T17:06:13;33.63;;;11.77;;
36827;SDS011;22766;48.042;11.192;2023-03-01T17:08:43;23.70;;;10.70;;
36827;SDS011;22766;48.042;11.192;2023-03-01T17:11:13;23.08;;;10.07;;
36827;SDS011;22766;48.042;11.192;2023-03-01T17:13:44;23.92;;;10.57;;
36827;SDS011;22766;48.042;11.192;2023-03-01T17:16:12;26.85;;;11.10;;
36827;SDS011;22766;48.042;11.192;2023-03-01T17:18:42;18.90;;;9.68;;
36827;SDS011;22766;48.042;11.192;2023-03-01T17:21:09;21.20;;;9.98;;
36827;SDS011;22766;48.042;11.192;2023-03-01T17:23:37;20.90;;;9.35;;
36827;SDS011;22766;48.042;11.192;2023-03-01T17:26:05;17.73;;;9.82;;
36827;SDS011;22766;48.042;11.192;2023-03-01T17:28:33;19.05;;;9.00;;
36827;SDS011;22766;48.042;11.192;2023-03-01T17:31:01;21.35;;;9.75;;
36827;SDS011;22766;48.042;11.192;2023-03-01T17:33:30;19.27;;;8.55;;